createdAt,value
2022-08-12T00:00:58.911Z,3.20
2022-08-12T00:03:45.137Z,3.20
2022-08-12T00:06:32.613Z,3.50
2022-08-12T00:09:24.336Z,3.00
2022-08-12T00:12:31.881Z,2.75
2022-08-12T00:15:17.763Z,4.22
2022-08-12T00:18:03.914Z,3.78
2022-08-12T00:20:49.839Z,2.80
2022-08-12T00:23:56.079Z,3.83
2022-08-12T00:27:06.017Z,3.20
2022-08-12T00:29:52.593Z,3.40
2022-08-12T00:32:39.060Z,3.22
2022-08-12T00:35:35.471Z,3.65
2022-08-12T00:38:23.750Z,3.08
2022-08-12T00:41:10.325Z,3.53
2022-08-12T00:43:38.336Z,3.03
2022-08-12T00:46:24.988Z,4.40
2022-08-12T00:48:53.399Z,3.25
2022-08-12T00:51:21.590Z,3.20
2022-08-12T00:53:49.479Z,3.17
2022-08-12T00:56:22.847Z,3.60
2022-08-12T00:58:53.567Z,3.63
2022-08-12T01:01:22.714Z,3.17
2022-08-12T01:04:10.759Z,3.33
2022-08-12T01:07:19.541Z,4.32
2022-08-12T01:10:07.399Z,3.72
2022-08-12T01:12:41.692Z,3.70
2022-08-12T01:15:13.629Z,3.40
2022-08-12T01:17:46.215Z,3.88
2022-08-12T01:20:37.082Z,3.72
2022-08-12T01:24:30.877Z,3.92
2022-08-12T01:27:03.433Z,4.15
2022-08-12T01:29:46.518Z,3.63
2022-08-12T01:32:19.561Z,3.65
2022-08-12T01:35:08.466Z,3.55
2022-08-12T01:37:56.052Z,3.53
2022-08-12T01:40:38.662Z,3.22
2022-08-12T01:43:17.222Z,5.20
2022-08-12T01:46:38.916Z,4.95
2022-08-12T01:50:36.347Z,6.40
2022-08-12T01:53:15.901Z,6.28
2022-08-12T01:55:55.027Z,6.30
2022-08-12T01:58:55.382Z,7.40
2022-08-12T02:01:34.497Z,5.40
2022-08-12T02:04:57.374Z,4.85
2022-08-12T02:08:22.442Z,5.55
2022-08-12T02:11:22.824Z,4.43
2022-08-12T02:14:42.157Z,3.85
2022-08-12T02:18:04.626Z,3.83
2022-08-12T02:21:00.350Z,3.95
2022-08-12T02:23:28.869Z,4.07
2022-08-12T02:26:05.432Z,3.53
2022-08-12T02:28:34.129Z,3.70
2022-08-12T02:31:11.127Z,4.25
2022-08-12T02:33:39.740Z,4.10
2022-08-12T02:36:07.602Z,4.40
2022-08-12T02:38:57.567Z,4.70
2022-08-12T02:41:30.044Z,3.88
2022-08-12T02:44:08.061Z,4.30
2022-08-12T02:46:37.697Z,4.13
2022-08-12T02:49:32.633Z,4.05
2022-08-12T02:52:01.005Z,3.65
2022-08-12T02:54:28.814Z,3.40
2022-08-12T02:57:20.005Z,4.57
2022-08-12T03:00:08.944Z,4.13
2022-08-12T03:02:40.019Z,4.22
2022-08-12T03:05:12.102Z,4.80
2022-08-12T03:07:59.691Z,4.28
2022-08-12T03:10:39.522Z,4.85
2022-08-12T03:13:11.616Z,4.65
2022-08-12T03:15:40.378Z,4.53
2022-08-12T03:18:46.034Z,4.10
2022-08-12T03:21:52.817Z,5.20
2022-08-12T03:24:09.414Z,5.00
2022-08-12T03:26:47.356Z,4.15
2022-08-12T03:29:18.966Z,4.43
2022-08-12T03:31:48.385Z,4.65
2022-08-12T03:34:23.552Z,4.43
2022-08-12T03:36:55.357Z,4.53
2022-08-12T03:39:40.752Z,4.80
2022-08-12T03:42:25.361Z,4.95
2022-08-12T03:45:52.647Z,5.03
2022-08-12T03:48:39.995Z,4.90
2022-08-12T03:51:29.836Z,4.10
2022-08-12T03:54:16.348Z,4.95
2022-08-12T03:57:02.331Z,4.68
2022-08-12T03:59:48.279Z,5.25
2022-08-12T04:02:16.985Z,5.97
2022-08-12T04:04:47.296Z,5.38
2022-08-12T04:07:17.590Z,5.53
2022-08-12T04:09:46.917Z,5.13
2022-08-12T04:12:33.652Z,5.15
2022-08-12T04:15:25.848Z,5.10
2022-08-12T04:18:07.645Z,4.63
2022-08-12T04:20:36.566Z,5.30
2022-08-12T04:23:05.280Z,4.88
2022-08-12T04:25:36.244Z,4.60
2022-08-12T04:28:09.651Z,5.05
2022-08-12T04:30:40.825Z,5.55
2022-08-12T04:33:12.796Z,5.13
2022-08-12T04:35:40.084Z,5.63
2022-08-12T04:38:30.259Z,6.85
2022-08-12T04:40:58.563Z,6.03
2022-08-12T04:44:00.190Z,5.72
2022-08-12T04:46:34.483Z,6.00
2022-08-12T04:49:25.490Z,5.45
2022-08-12T04:51:55.209Z,6.03
2022-08-12T04:54:28.010Z,6.50
2022-08-12T04:57:04.780Z,7.28
2022-08-12T04:59:47.206Z,8.38
2022-08-12T05:02:22.635Z,7.80
2022-08-12T05:05:14.377Z,8.07
2022-08-12T05:08:02.080Z,8.35
2022-08-12T05:10:33.903Z,8.05
2022-08-12T05:13:14.904Z,8.38
2022-08-12T05:16:04.716Z,7.80
2022-08-12T05:18:39.347Z,8.75
2022-08-12T05:21:09.735Z,7.95
2022-08-12T05:23:39.782Z,9.40
2022-08-12T05:26:07.549Z,8.75
2022-08-12T05:28:36.118Z,9.45
2022-08-12T05:31:12.587Z,9.70
2022-08-12T05:33:48.759Z,9.93
2022-08-12T05:36:17.486Z,11.38
2022-08-12T05:38:58.558Z,9.50
2022-08-12T05:41:35.202Z,9.93
2022-08-12T05:44:07.965Z,11.20
2022-08-12T05:46:37.568Z,9.75
2022-08-12T05:49:06.523Z,10.32
2022-08-12T05:51:40.912Z,11.15
2022-08-12T05:54:11.399Z,10.60
2022-08-12T05:56:41.263Z,12.00
2022-08-12T05:59:28.532Z,10.18
2022-08-12T06:02:11.662Z,11.48
2022-08-12T06:04:41.944Z,9.52
2022-08-12T06:08:00.504Z,8.80
2022-08-12T06:10:00.915Z,9.52
2022-08-12T06:12:28.233Z,9.10
2022-08-12T06:14:55.674Z,8.85
2022-08-12T06:17:23.049Z,9.38
2022-08-12T06:20:26.537Z,9.18
2022-08-12T06:22:57.261Z,8.55
2022-08-12T06:25:27.791Z,8.73
2022-08-12T06:28:07.669Z,8.73
2022-08-12T06:30:39.552Z,8.70
2022-08-12T06:33:22.518Z,9.40
2022-08-12T06:35:57.277Z,9.48
2022-08-12T06:38:47.714Z,8.93
2022-08-12T06:41:34.320Z,9.43
2022-08-12T06:44:06.167Z,8.35
2022-08-12T06:46:39.376Z,9.07
2022-08-12T06:49:06.895Z,9.45
2022-08-12T06:51:34.446Z,8.50
2022-08-12T06:54:02.214Z,10.52
2022-08-12T06:57:00.198Z,10.20
2022-08-12T06:59:21.233Z,9.77
2022-08-12T07:01:50.696Z,9.90
2022-08-12T07:04:37.285Z,10.27
2022-08-12T07:07:09.902Z,10.15
2022-08-12T07:10:04.464Z,9.27
2022-08-12T07:12:33.870Z,8.32
2022-08-12T07:15:02.082Z,8.95
2022-08-12T07:17:35.913Z,8.98
2022-08-12T07:20:20.154Z,7.95
2022-08-12T07:23:00.184Z,8.38
2022-08-12T07:25:37.913Z,7.60
2022-08-12T07:28:23.595Z,7.55
2022-08-12T07:30:55.690Z,8.23
2022-08-12T07:33:28.134Z,7.70
2022-08-12T07:36:02.384Z,8.48
2022-08-12T07:38:34.040Z,8.05
2022-08-12T07:41:25.297Z,8.07
2022-08-12T07:44:04.820Z,7.07
2022-08-12T07:46:40.839Z,7.55
2022-08-12T07:49:15.896Z,8.43
2022-08-12T07:51:44.624Z,7.53
2022-08-12T07:54:13.767Z,7.30
2022-08-12T07:56:43.348Z,7.97
2022-08-12T07:59:11.608Z,7.70
2022-08-12T08:01:40.050Z,7.40
2022-08-12T08:04:26.731Z,8.70
2022-08-12T08:06:54.905Z,7.25
2022-08-12T08:09:24.410Z,7.18
2022-08-12T08:12:19.172Z,7.43
2022-08-12T08:14:51.995Z,7.38
2022-08-12T08:17:39.918Z,6.13
2022-08-12T08:20:10.534Z,5.90
2022-08-12T08:23:00.246Z,7.07
2022-08-12T08:25:35.829Z,6.47
2022-08-12T08:28:24.054Z,7.18
2022-08-12T08:30:53.631Z,6.43
2022-08-12T08:33:23.688Z,6.38
2022-08-12T08:36:23.477Z,6.30
2022-08-12T08:38:57.481Z,6.03
2022-08-12T08:42:18.740Z,7.03
2022-08-12T08:44:39.533Z,6.80
2022-08-12T08:47:10.500Z,5.75
2022-08-12T08:49:39.752Z,6.90
2022-08-12T08:52:11.239Z,6.68
2022-08-12T08:54:58.489Z,5.95
2022-08-12T08:57:54.095Z,6.43
2022-08-12T09:00:25.433Z,5.72
2022-08-12T09:02:58.730Z,6.50
2022-08-12T09:06:01.828Z,6.13
2022-08-12T09:08:20.863Z,6.43
2022-08-12T09:10:50.755Z,4.85
2022-08-12T09:13:29.121Z,5.30
2022-08-12T09:16:20.330Z,4.67
2022-08-12T09:18:52.601Z,5.13
2022-08-12T09:21:23.208Z,5.18
2022-08-12T09:23:59.228Z,5.03
2022-08-12T09:26:46.560Z,4.95
2022-08-12T09:30:08.674Z,5.07
2022-08-12T09:32:31.403Z,4.70
2022-08-12T09:34:57.743Z,4.95
2022-08-12T09:37:26.576Z,5.03
2022-08-12T09:40:55.761Z,4.55
2022-08-12T09:43:24.701Z,4.30
2022-08-12T09:46:06.542Z,4.80
2022-08-12T09:48:44.862Z,4.38
2022-08-12T09:51:37.185Z,4.90
2022-08-12T09:54:31.661Z,4.68
2022-08-12T09:58:45.756Z,3.95
2022-08-12T10:00:19.606Z,3.77
2022-08-12T10:03:32.465Z,4.32
2022-08-12T10:06:26.848Z,3.85
2022-08-12T10:08:52.490Z,3.85
2022-08-12T10:12:10.406Z,4.13
2022-08-12T10:14:34.108Z,4.40
2022-08-12T10:17:02.280Z,4.50
2022-08-12T10:19:36.233Z,4.30
2022-08-12T10:22:16.606Z,4.28
2022-08-12T10:25:17.570Z,4.70
2022-08-12T10:28:08.405Z,4.63
2022-08-12T10:30:44.319Z,4.30
2022-08-12T10:33:31.647Z,4.35
2022-08-12T10:36:02.004Z,4.97
2022-08-12T10:38:34.061Z,4.22
2022-08-12T10:41:57.347Z,4.45
2022-08-12T10:44:33.737Z,3.80
2022-08-12T10:47:25.641Z,4.20
2022-08-12T10:50:03.351Z,4.43
2022-08-12T10:53:00.455Z,4.75
2022-08-12T10:55:55.520Z,4.38
2022-08-12T10:58:28.350Z,4.05
2022-08-12T11:01:49.715Z,4.70
2022-08-12T11:04:24.122Z,4.68
2022-08-12T11:07:05.910Z,4.78
2022-08-12T11:09:56.469Z,4.53
2022-08-12T11:12:56.421Z,4.05
2022-08-12T11:15:18.856Z,3.92
2022-08-12T11:17:53.363Z,4.78
2022-08-12T11:20:28.992Z,4.50
2022-08-12T11:23:04.072Z,4.50
2022-08-12T11:25:58.263Z,4.30
2022-08-12T11:28:33.178Z,4.70
2022-08-12T11:31:21.961Z,4.60
2022-08-12T11:34:06.322Z,4.00
2022-08-12T11:36:39.403Z,4.65
2022-08-12T11:39:08.223Z,4.75
2022-08-12T11:41:40.305Z,4.10
2022-08-12T11:44:37.290Z,3.50
2022-08-12T11:46:58.924Z,3.50
2022-08-12T11:49:32.330Z,4.72
2022-08-12T11:52:04.434Z,4.05
2022-08-12T11:54:54.368Z,4.50
2022-08-12T11:58:14.621Z,4.30
2022-08-12T12:02:58.365Z,4.40
2022-08-12T12:05:39.358Z,3.85
2022-08-12T12:08:40.412Z,4.22
2022-08-12T12:10:55.066Z,4.40
2022-08-12T12:14:07.577Z,4.35
2022-08-12T12:16:11.683Z,4.30
2022-08-12T12:18:39.346Z,4.30
2022-08-12T12:21:08.597Z,4.35
2022-08-12T12:23:38.021Z,4.30
2022-08-12T12:26:09.886Z,4.43
2022-08-12T12:28:54.926Z,4.78
2022-08-12T12:32:10.709Z,4.15
2022-08-12T12:34:12.176Z,3.67
2022-08-12T12:36:58.271Z,4.22
2022-08-12T12:39:54.985Z,4.55
2022-08-12T12:42:42.763Z,4.65
2022-08-12T12:45:19.535Z,4.80
2022-08-12T12:48:11.279Z,5.32
2022-08-12T12:51:12.087Z,4.15
2022-08-12T12:54:06.305Z,4.40
2022-08-12T12:56:52.382Z,4.60
2022-08-12T12:59:54.996Z,4.20
2022-08-12T13:02:10.999Z,4.43
2022-08-12T13:04:38.375Z,4.10
2022-08-12T13:07:06.831Z,4.32
2022-08-12T13:09:36.453Z,4.47
2022-08-12T13:12:09.100Z,4.45
2022-08-12T13:14:39.872Z,4.30
2022-08-12T13:17:14.880Z,4.10
2022-08-12T13:19:46.820Z,4.22
2022-08-12T13:22:21.740Z,3.92
2022-08-12T13:24:57.077Z,3.90
2022-08-12T13:27:41.388Z,3.78
2022-08-12T13:30:23.738Z,4.20
2022-08-12T13:32:58.395Z,4.40
2022-08-12T13:35:33.483Z,4.10
2022-08-12T13:38:26.667Z,3.80
2022-08-12T13:41:35.793Z,4.30
2022-08-12T13:44:10.537Z,4.05
2022-08-12T13:46:41.975Z,4.10
2022-08-12T13:49:17.686Z,5.00
2022-08-12T13:52:01.351Z,3.70
2022-08-12T13:54:29.674Z,3.22
2022-08-12T13:56:57.080Z,3.03
2022-08-12T13:59:26.740Z,4.13
2022-08-12T14:01:56.635Z,3.70
2022-08-12T14:04:24.865Z,3.90
2022-08-12T14:06:53.947Z,3.75
2022-08-12T14:09:59.785Z,3.35
2022-08-12T14:12:27.993Z,3.72
2022-08-12T14:14:55.366Z,3.67
2022-08-12T14:17:23.474Z,3.58
2022-08-12T14:20:11.947Z,4.10
2022-08-12T14:22:59.970Z,3.55
2022-08-12T14:25:48.621Z,3.65
2022-08-12T14:28:23.314Z,4.00
2022-08-12T14:31:01.229Z,3.13
2022-08-12T14:33:52.660Z,3.55
2022-08-12T14:36:30.938Z,3.47
2022-08-12T14:38:59.152Z,3.38
2022-08-12T14:41:57.292Z,3.50
2022-08-12T14:44:57.798Z,3.47
2022-08-12T14:47:12.850Z,3.78
2022-08-12T14:50:37.455Z,3.42
2022-08-12T14:53:45.828Z,3.40
2022-08-12T14:58:20.321Z,3.92
2022-08-12T15:01:07.225Z,3.17
2022-08-12T15:03:46.714Z,3.78
2022-08-12T15:06:39.261Z,3.47
2022-08-12T15:09:12.208Z,3.58
2022-08-12T15:11:55.579Z,3.63
2022-08-12T15:14:30.308Z,3.53
2022-08-12T15:17:00.137Z,3.65
2022-08-12T15:20:31.761Z,3.50
2022-08-12T15:22:38.132Z,3.85
2022-08-12T15:25:08.036Z,3.15
2022-08-12T15:28:20.711Z,3.22
2022-08-12T15:30:37.535Z,4.57
2022-08-12T15:33:14.768Z,5.03
2022-08-12T15:35:50.312Z,4.68
2022-08-12T15:38:31.395Z,4.20
2022-08-12T15:41:22.269Z,4.38
2022-08-12T15:44:16.033Z,4.40
2022-08-12T15:46:38.069Z,3.33
2022-08-12T15:49:16.898Z,3.65
2022-08-12T15:52:05.451Z,4.13
2022-08-12T15:54:34.627Z,4.97
2022-08-12T15:57:10.782Z,4.88
2022-08-12T16:00:00.677Z,4.03
2022-08-12T16:02:49.512Z,3.20
2022-08-12T16:06:12.756Z,3.10
2022-08-12T16:08:36.344Z,3.30
2022-08-12T16:11:14.431Z,3.40
2022-08-12T16:14:03.295Z,3.22
2022-08-12T16:16:35.555Z,3.40
2022-08-12T16:19:19.091Z,2.90
2022-08-12T16:22:14.408Z,3.40
2022-08-12T16:24:47.102Z,3.40
2022-08-12T16:27:25.655Z,3.28
2022-08-12T16:29:57.601Z,3.10
2022-08-12T16:32:31.441Z,3.47
2022-08-12T16:35:00.833Z,3.05
2022-08-12T16:38:27.214Z,3.03
2022-08-12T16:40:21.843Z,3.00
2022-08-12T16:42:53.615Z,3.03
2022-08-12T16:45:32.117Z,3.03
2022-08-12T16:48:35.250Z,3.40
2022-08-12T16:51:12.693Z,2.97
2022-08-12T16:53:44.346Z,3.10
2022-08-12T16:56:17.026Z,3.10
2022-08-12T16:58:47.071Z,2.85
2022-08-12T17:01:15.649Z,3.38
2022-08-12T17:04:09.077Z,3.30
2022-08-12T17:06:44.192Z,3.17
2022-08-12T17:09:34.338Z,2.47
2022-08-12T17:12:08.732Z,3.22
2022-08-12T17:14:55.866Z,3.13
2022-08-12T17:17:38.882Z,2.63
2022-08-12T17:20:35.460Z,3.45
2022-08-12T17:23:20.306Z,3.83
2022-08-12T17:25:52.395Z,2.92
2022-08-12T17:28:22.624Z,3.50
2022-08-12T17:30:51.286Z,3.10
2022-08-12T17:33:43.401Z,3.03
2022-08-12T17:36:11.077Z,3.38
2022-08-12T17:38:58.261Z,3.30
2022-08-12T17:41:56.241Z,2.90
2022-08-12T17:44:14.615Z,2.85
2022-08-12T17:46:44.880Z,2.65
2022-08-12T17:50:02.510Z,2.92
2022-08-12T17:55:03.454Z,3.28
2022-08-12T17:57:32.813Z,3.35
2022-08-12T18:00:13.934Z,2.63
2022-08-12T18:02:51.317Z,2.65
2022-08-12T18:05:18.975Z,2.72
2022-08-12T18:07:55.059Z,2.97
2022-08-12T18:10:44.738Z,2.85
2022-08-12T18:13:40.195Z,2.85
2022-08-12T18:16:13.777Z,2.65
2022-08-12T18:18:50.890Z,2.50
2022-08-12T18:21:26.421Z,3.07
2022-08-12T18:24:21.652Z,3.28
2022-08-12T18:26:58.141Z,3.08
2022-08-12T18:29:47.285Z,3.50
2022-08-12T18:32:34.956Z,3.65
2022-08-12T18:35:10.687Z,3.13
2022-08-12T18:38:08.152Z,3.88
2022-08-12T18:41:21.629Z,3.45
2022-08-12T18:44:10.875Z,3.10
2022-08-12T18:47:01.458Z,3.22
2022-08-12T18:49:38.747Z,3.40
2022-08-12T18:52:11.332Z,3.13
2022-08-12T18:54:53.366Z,3.47
2022-08-12T18:58:07.267Z,2.90
2022-08-12T19:00:21.606Z,2.95
2022-08-12T19:02:54.874Z,2.80
2022-08-12T19:05:53.142Z,3.55
2022-08-12T19:08:14.516Z,2.65
2022-08-12T19:10:50.610Z,3.33
2022-08-12T19:13:39.839Z,3.08
2022-08-12T19:16:10.882Z,2.80
2022-08-12T19:18:44.843Z,2.47
2022-08-12T19:21:16.307Z,2.80
2022-08-12T19:24:05.066Z,2.92
2022-08-12T19:26:35.815Z,3.22
2022-08-12T19:29:07.503Z,3.05
2022-08-12T19:31:55.762Z,3.50
2022-08-12T19:35:32.839Z,3.45
2022-08-12T19:38:02.416Z,3.78
2022-08-12T19:40:31.640Z,3.00
2022-08-12T19:43:19.945Z,2.95
2022-08-12T19:45:56.171Z,2.65
2022-08-12T19:48:32.725Z,4.05
2022-08-12T19:51:35.880Z,3.20
2022-08-12T19:54:05.852Z,4.22
2022-08-12T19:56:35.217Z,11.70
2022-08-12T19:59:22.208Z,4.65
2022-08-12T20:02:02.291Z,3.60
2022-08-12T20:04:37.820Z,2.95
2022-08-12T20:07:23.996Z,3.75
2022-08-12T20:09:53.023Z,3.63
2022-08-12T20:12:30.845Z,4.03
2022-08-12T20:15:22.010Z,3.22
2022-08-12T20:17:54.454Z,3.40
2022-08-12T20:20:42.318Z,3.95
2022-08-12T20:23:50.842Z,3.70
2022-08-12T20:26:41.899Z,3.90
2022-08-12T20:29:35.679Z,3.45
2022-08-12T20:32:14.343Z,3.95
2022-08-12T20:34:48.139Z,4.05
2022-08-12T20:37:15.487Z,4.32
2022-08-12T20:39:53.471Z,4.10
2022-08-12T20:42:25.024Z,4.18
2022-08-12T20:45:18.533Z,3.30
2022-08-12T20:47:46.798Z,3.70
2022-08-12T20:50:22.802Z,3.83
2022-08-12T20:52:55.020Z,3.83
2022-08-12T20:55:46.987Z,3.42
2022-08-12T20:58:24.426Z,3.55
2022-08-12T21:01:15.385Z,4.13
2022-08-12T21:04:09.910Z,3.55
2022-08-12T21:06:57.657Z,3.80
2022-08-12T21:09:53.396Z,3.85
2022-08-12T21:12:31.201Z,3.92
2022-08-12T21:15:24.281Z,3.95
2022-08-12T21:18:09.782Z,3.78
2022-08-12T21:20:44.443Z,3.58
2022-08-12T21:23:14.301Z,3.58
2022-08-12T21:25:48.184Z,3.65
2022-08-12T21:28:20.949Z,3.97
2022-08-12T21:31:10.664Z,3.25
2022-08-12T21:33:58.358Z,4.32
2022-08-12T21:36:34.479Z,4.68
2022-08-12T21:39:20.560Z,4.05
2022-08-12T21:41:56.394Z,3.60
2022-08-12T21:45:46.510Z,4.38
2022-08-12T21:47:20.234Z,3.83
2022-08-12T21:49:55.500Z,4.57
2022-08-12T21:52:35.555Z,4.55
2022-08-12T21:55:18.309Z,3.92
2022-08-12T21:57:54.046Z,3.60
2022-08-12T22:00:35.179Z,4.00
2022-08-12T22:04:03.622Z,4.20
2022-08-12T22:06:20.311Z,4.72
2022-08-12T22:09:15.961Z,4.47
2022-08-12T22:11:59.358Z,3.67
2022-08-12T22:14:29.810Z,3.80
2022-08-12T22:17:01.211Z,3.97
2022-08-12T22:19:49.574Z,4.00
2022-08-12T22:22:18.768Z,3.80
2022-08-12T22:24:47.602Z,4.05
2022-08-12T22:27:31.706Z,3.90
2022-08-12T22:30:20.030Z,4.40
2022-08-12T22:32:49.880Z,3.72
2022-08-12T22:35:47.699Z,4.20
2022-08-12T22:38:25.144Z,3.95
2022-08-12T22:41:07.441Z,4.03
2022-08-12T22:43:59.247Z,3.78
2022-08-12T22:46:53.298Z,4.00
2022-08-12T22:49:44.779Z,3.60
2022-08-12T22:52:34.924Z,3.60
2022-08-12T22:55:05.372Z,3.53
2022-08-12T22:57:49.298Z,4.32
2022-08-12T23:00:27.160Z,3.70
2022-08-12T23:03:02.688Z,4.07
2022-08-12T23:06:09.392Z,4.00
2022-08-12T23:08:29.888Z,3.92
2022-08-12T23:11:04.712Z,4.22
2022-08-12T23:13:49.136Z,3.67
2022-08-12T23:16:31.795Z,3.95
2022-08-12T23:22:35.752Z,3.90
2022-08-12T23:25:05.246Z,3.58
2022-08-12T23:27:55.745Z,3.83
2022-08-12T23:30:31.239Z,3.95
2022-08-12T23:33:21.444Z,3.53
2022-08-12T23:36:07.577Z,4.13
2022-08-12T23:38:42.232Z,4.45
2022-08-12T23:41:25.553Z,4.30
2022-08-12T23:44:19.601Z,3.95
2022-08-12T23:47:09.364Z,3.95
2022-08-12T23:49:58.183Z,4.00
2022-08-12T23:52:33.924Z,4.15
2022-08-12T23:55:41.009Z,4.00
2022-08-12T23:58:20.653Z,4.28
